EDC weather

Austin Executive Airport
Austin, Texas, United States

Public forecast

Using degrees Fahrenheit for public forecast. Weather courtesy of forecast.io.

Closest aviation weather report (METAR) to Austin Executive Airport

Closest report is Austin Executive Airport, 0.0 nm (0.0 km) ENE. Retrieved 2020/05/30 00:55 UTC (28 minutes ago):

KEDC 300055Z AUTO 02006KT 10SM CLR 27/14 A3008 RMK AO2

Closest aviation forecast (TAF) to Austin Executive Airport

Closest forecast is Austin Bergstrom International Airport, 13.3 nm (24.7 km) SSW. Retrieved 2020-05-30 00:30 UTC (53 minutes ago):

TAF KAUS 292328Z 3000/3106 02008KT P6SM BKN250